Time;durP1;ratioP1;P1;durP2;ratioP2;P2;SDS_P1;SDS_P2;PMS_P1;PMS_P2;Temp;Humidity;BMP_temperature;BMP_pressure;BME280_temperature;BME280_humidity;BME280_pressure;Samples;Min_cycle;Max_cycle;Signal;HPM_P1;HPM_P2
2022/12/05 00:00:26;;;;;;;12.53;8.17;;;;;;;;;;5041984;28;20222;-25
2022/12/05 00:02:53;;;;;;;13.83;8.40;;;;;;;;;;5030804;28;20207;-31
2022/12/05 00:05:22;;;;;;;16.57;9.00;;;;;;;;;;5034057;28;20208;-29
2022/12/05 00:07:49;;;;;;;14.83;8.53;;;;;;;;;;5037105;28;20225;-29
2022/12/05 00:10:16;;;;;;;16.97;7.97;;;;;;;;;;5027536;28;20222;-25
2022/12/05 00:12:43;;;;;;;14.23;7.60;;;;;;;;;;5024563;28;20210;-26
2022/12/05 00:15:11;;;;;;;15.33;9.17;;;;;;;;;;5038322;28;20207;-26
2022/12/05 00:17:39;;;;;;;14.17;8.37;;;;;;;;;;5026857;28;20344;-29
2022/12/05 00:20:07;;;;;;;14.60;7.80;;;;;;;;;;5037778;28;20219;-28
2022/12/05 00:22:37;;;;;;;17.13;8.90;;;;;;;;;;5015778;28;20211;-30
2022/12/05 00:25:05;;;;;;;13.27;7.67;;;;;;;;;;5022917;28;20218;-25
2022/12/05 00:27:32;;;;;;;13.70;8.10;;;;;;;;;;5027011;28;20223;-28
2022/12/05 00:29:59;;;;;;;12.23;7.13;;;;;;;;;;5026637;28;20205;-29
2022/12/05 00:32:28;;;;;;;13.37;7.47;;;;;;;;;;5024772;28;20202;-28
2022/12/05 00:34:55;;;;;;;14.67;8.17;;;;;;;;;;5044602;28;20203;-24
2022/12/05 00:37:23;;;;;;;15.00;7.70;;;;;;;;;;5045544;28;20226;-29
2022/12/05 00:39:51;;;;;;;14.37;7.50;;;;;;;;;;5038697;28;20217;-30
2022/12/05 00:42:18;;;;;;;13.47;7.47;;;;;;;;;;5054197;28;20233;-28
2022/12/05 00:44:45;;;;;;;12.30;7.47;;;;;;;;;;5051954;28;20208;-23
2022/12/05 00:47:13;;;;;;;14.70;7.13;;;;;;;;;;5028408;28;20229;-26
2022/12/05 00:49:40;;;;;;;12.63;7.43;;;;;;;;;;5038570;28;20490;-28
2022/12/05 00:52:07;;;;;;;11.67;7.37;;;;;;;;;;5015511;28;20321;-27
2022/12/05 00:54:34;;;;;;;14.13;7.67;;;;;;;;;;5014885;28;20207;-29
2022/12/05 00:57:02;;;;;;;14.27;7.80;;;;;;;;;;5029997;28;20391;-27
2022/12/05 00:59:29;;;;;;;13.43;8.07;;;;;;;;;;5054522;28;20205;-28
2022/12/05 01:01:57;;;;;;;12.47;7.40;;;;;;;;;;5028626;28;20223;-29
2022/12/05 01:04:25;;;;;;;11.53;7.70;;;;;;;;;;5045238;28;20202;-26
2022/12/05 01:06:54;;;;;;;12.80;6.77;;;;;;;;;;5035085;28;20203;-26
2022/12/05 01:09:22;;;;;;;10.37;6.67;;;;;;;;;;5032657;28;20292;-27
2022/12/05 01:11:49;;;;;;;14.77;7.37;;;;;;;;;;5030622;28;20232;-28
2022/12/05 01:14:19;;;;;;;12.00;6.73;;;;;;;;;;5044762;28;20206;-28
2022/12/05 01:16:47;;;;;;;11.63;6.97;;;;;;;;;;5027359;28;20209;-25
2022/12/05 01:19:18;;;;;;;10.13;6.33;;;;;;;;;;5027586;28;20206;-27
2022/12/05 01:21:46;;;;;;;10.23;6.97;;;;;;;;;;5014942;28;20227;-27
2022/12/05 01:24:14;;;;;;;12.13;6.67;;;;;;;;;;5021211;28;20212;-30
2022/12/05 01:26:41;;;;;;;10.90;6.50;;;;;;;;;;5033716;28;20211;-28
2022/12/05 01:29:09;;;;;;;11.80;6.67;;;;;;;;;;5033697;28;20234;-27
2022/12/05 01:31:38;;;;;;;10.47;6.67;;;;;;;;;;5031588;28;20307;-30
2022/12/05 01:34:06;;;;;;;12.97;6.20;;;;;;;;;;5038730;28;20303;-27
2022/12/05 01:36:34;;;;;;;9.47;6.40;;;;;;;;;;5042434;28;20195;-28
2022/12/05 01:39:01;;;;;;;13.17;6.60;;;;;;;;;;5030666;28;20241;-29
2022/12/05 01:41:30;;;;;;;10.93;6.73;;;;;;;;;;5033396;28;20271;-25
2022/12/05 01:43:58;;;;;;;10.80;6.90;;;;;;;;;;5046529;28;20234;-27
2022/12/05 01:46:26;;;;;;;11.47;6.43;;;;;;;;;;5026482;28;20294;-24
2022/12/05 01:48:58;;;;;;;10.07;6.33;;;;;;;;;;5040583;28;20218;-27
2022/12/05 01:51:25;;;;;;;11.70;6.57;;;;;;;;;;5035753;28;20226;-28
2022/12/05 01:53:53;;;;;;;14.23;6.50;;;;;;;;;;5036523;28;20211;-32
2022/12/05 01:56:20;;;;;;;11.23;6.20;;;;;;;;;;5024664;28;20216;-31
2022/12/05 01:58:48;;;;;;;14.93;6.83;;;;;;;;;;5048046;28;20209;-27
2022/12/05 02:01:17;;;;;;;13.67;6.97;;;;;;;;;;5024370;28;20248;-27
2022/12/05 02:03:44;;;;;;;11.77;6.57;;;;;;;;;;5025306;28;20209;-28
2022/12/05 02:06:14;;;;;;;13.20;7.23;;;;;;;;;;5050828;28;20206;-27
2022/12/05 02:08:41;;;;;;;13.83;6.93;;;;;;;;;;5036428;28;20288;-27
2022/12/05 02:11:09;;;;;;;11.83;6.63;;;;;;;;;;5022932;28;20231;-30
2022/12/05 02:13:51;;;;;;;13.20;7.23;;;;;;;;;;5031061;28;20198;-25
2022/12/05 02:16:25;;;;;;;11.67;6.47;;;;;;;;;;5018778;28;20207;-25
2022/12/05 02:18:56;;;;;;;11.00;6.67;;;;;;;;;;5032076;28;20202;-28
2022/12/05 02:21:36;;;;;;;12.37;7.43;;;;;;;;;;5033992;28;20337;-26
2022/12/05 02:24:16;;;;;;;11.43;7.00;;;;;;;;;;5030670;28;20301;-26
2022/12/05 02:26:52;;;;;;;12.63;6.80;;;;;;;;;;5034307;28;20204;-27
2022/12/05 02:29:41;;;;;;;14.80;6.93;;;;;;;;;;5020423;28;20240;-29
2022/12/05 02:32:11;;;;;;;12.03;6.07;;;;;;;;;;5025730;28;20719;-27
2022/12/05 02:34:44;;;;;;;12.23;6.43;;;;;;;;;;5042160;28;20229;-27
2022/12/05 02:37:14;;;;;;;13.50;7.30;;;;;;;;;;5041393;28;20206;-27
2022/12/05 02:39:45;;;;;;;15.53;7.57;;;;;;;;;;5028343;28;20203;-26
2022/12/05 02:42:15;;;;;;;11.37;6.77;;;;;;;;;;5035518;28;20234;-32
2022/12/05 02:44:47;;;;;;;10.33;6.50;;;;;;;;;;5031260;28;20208;-26
2022/12/05 02:47:15;;;;;;;12.70;7.45;;;;;;;;;;5028807;28;20207;-30
2022/12/05 02:49:43;;;;;;;12.10;6.83;;;;;;;;;;5035551;28;20441;-27
2022/12/05 02:52:12;;;;;;;14.37;7.57;;;;;;;;;;5022139;28;20381;-27
2022/12/05 02:54:41;;;;;;;14.77;7.30;;;;;;;;;;5025599;28;20225;-30
2022/12/05 02:57:09;;;;;;;13.90;7.67;;;;;;;;;;5029722;28;20213;-30
2022/12/05 02:59:37;;;;;;;14.07;7.03;;;;;;;;;;5024048;28;20200;-29
2022/12/05 03:02:05;;;;;;;14.23;7.70;;;;;;;;;;5029046;28;20223;-26
2022/12/05 03:04:33;;;;;;;17.93;8.43;;;;;;;;;;5036863;28;20232;-29
2022/12/05 03:07:01;;;;;;;14.80;7.87;;;;;;;;;;5039331;28;20206;-28
2022/12/05 03:09:31;;;;;;;14.63;8.43;;;;;;;;;;5030853;28;20231;-28
2022/12/05 03:12:02;;;;;;;16.40;8.20;;;;;;;;;;5042253;28;20233;-30
2022/12/05 03:14:33;;;;;;;16.37;7.23;;;;;;;;;;5025021;28;20190;-29
2022/12/05 03:17:02;;;;;;;12.87;7.13;;;;;;;;;;5027309;28;20198;-25
2022/12/05 03:19:32;;;;;;;13.50;7.63;;;;;;;;;;5029331;28;20310;-26
2022/12/05 03:22:01;;;;;;;16.23;7.77;;;;;;;;;;5027732;28;20223;-29
2022/12/05 03:24:29;;;;;;;13.77;8.00;;;;;;;;;;5029275;28;20204;-27
2022/12/05 03:26:59;;;;;;;16.67;7.77;;;;;;;;;;5025873;28;20641;-28
2022/12/05 03:29:30;;;;;;;15.57;8.00;;;;;;;;;;5034215;28;20222;-28
2022/12/05 03:32:03;;;;;;;15.37;7.07;;;;;;;;;;5049092;28;20224;-30
2022/12/05 03:34:43;;;;;;;13.67;6.80;;;;;;;;;;5028050;28;20212;-27
2022/12/05 03:37:12;;;;;;;14.07;7.83;;;;;;;;;;5033733;28;20202;-30
2022/12/05 03:39:40;;;;;;;14.73;7.47;;;;;;;;;;5026497;28;20206;-30
2022/12/05 03:42:10;;;;;;;15.17;7.80;;;;;;;;;;5037299;28;20278;-28
2022/12/05 03:44:43;;;;;;;14.23;7.00;;;;;;;;;;5043403;28;20216;-26
2022/12/05 03:47:13;;;;;;;13.30;7.30;;;;;;;;;;5025249;28;20204;-29
2022/12/05 03:49:44;;;;;;;12.30;6.67;;;;;;;;;;5030256;28;20227;-27
2022/12/05 03:52:13;;;;;;;14.50;7.77;;;;;;;;;;5025289;28;20237;-28
2022/12/05 03:54:42;;;;;;;14.43;7.20;;;;;;;;;;5024430;28;20202;-28
2022/12/05 03:57:12;;;;;;;14.80;7.23;;;;;;;;;;5034889;28;20202;-29
2022/12/05 03:59:41;;;;;;;12.50;6.70;;;;;;;;;;5050912;28;20212;-28
2022/12/05 04:02:12;;;;;;;14.77;7.67;;;;;;;;;;5026073;28;20228;-30
2022/12/05 04:04:41;;;;;;;10.57;6.40;;;;;;;;;;5037226;28;20198;-24
2022/12/05 04:07:10;;;;;;;11.20;6.00;;;;;;;;;;5044840;28;20206;-30
2022/12/05 04:09:39;;;;;;;16.60;6.90;;;;;;;;;;5042959;28;20230;-27
2022/12/05 04:12:08;;;;;;;9.07;6.07;;;;;;;;;;5033643;28;20313;-30
2022/12/05 04:14:38;;;;;;;13.13;6.60;;;;;;;;;;5031031;28;20208;-24
2022/12/05 04:17:07;;;;;;;11.70;6.53;;;;;;;;;;5028425;28;20297;-24
2022/12/05 04:27:39;;;;;;;11.83;7.20;;;;;;;;;;4996126;28;20202;-24
2022/12/05 04:30:08;;;;;;;15.10;6.57;;;;;;;;;;4990618;28;20205;-28
2022/12/05 04:32:39;;;;;;;10.47;6.97;;;;;;;;;;4990895;28;20211;-27
2022/12/05 04:35:10;;;;;;;10.03;6.10;;;;;;;;;;4995489;28;20296;-23
2022/12/05 04:37:39;;;;;;;15.57;7.80;;;;;;;;;;4984598;28;20200;-24
2022/12/05 04:40:10;;;;;;;9.37;5.87;;;;;;;;;;4995057;28;20204;-24
2022/12/05 04:42:37;;;;;;;13.23;7.07;;;;;;;;;;4995679;28;20193;-24
2022/12/05 04:45:06;;;;;;;12.67;8.17;;;;;;;;;;4990876;28;20217;-24
2022/12/05 04:47:37;;;;;;;15.07;7.90;;;;;;;;;;4985848;28;20247;-24
2022/12/05 04:50:06;;;;;;;11.83;6.20;;;;;;;;;;4993647;28;20236;-24
2022/12/05 04:52:34;;;;;;;9.27;5.50;;;;;;;;;;4999333;28;20291;-25
2022/12/05 04:55:04;;;;;;;11.43;6.27;;;;;;;;;;4990373;28;20212;-25
2022/12/05 04:57:34;;;;;;;12.17;6.73;;;;;;;;;;4994773;28;20206;-26
2022/12/05 05:00:01;;;;;;;11.13;6.47;;;;;;;;;;4991089;28;20201;-26
2022/12/05 05:02:32;;;;;;;11.13;5.97;;;;;;;;;;4986430;28;20291;-29
2022/12/05 05:05:01;;;;;;;14.30;7.13;;;;;;;;;;4995304;28;20231;-27
2022/12/05 05:07:28;;;;;;;11.37;7.03;;;;;;;;;;5002719;28;20294;-26
2022/12/05 05:09:56;;;;;;;11.80;6.53;;;;;;;;;;4988046;28;20231;-24
2022/12/05 05:12:23;;;;;;;13.77;7.20;;;;;;;;;;4994950;28;20235;-28
2022/12/05 05:14:51;;;;;;;10.57;5.43;;;;;;;;;;4992485;28;20212;-27
2022/12/05 05:17:18;;;;;;;11.53;6.53;;;;;;;;;;4986492;28;20230;-25
2022/12/05 05:19:45;;;;;;;12.13;7.10;;;;;;;;;;4994258;28;20214;-25
2022/12/05 05:22:12;;;;;;;11.23;6.53;;;;;;;;;;4995410;28;20453;-26
2022/12/05 05:24:40;;;;;;;11.80;6.33;;;;;;;;;;4991649;28;20239;-25
2022/12/05 05:27:07;;;;;;;12.33;7.20;;;;;;;;;;4986959;28;20218;-25
2022/12/05 05:29:34;;;;;;;12.03;6.57;;;;;;;;;;4994212;28;20216;-26
2022/12/05 05:32:02;;;;;;;12.20;6.93;;;;;;;;;;4990450;28;20649;-28
2022/12/05 05:34:29;;;;;;;11.10;5.90;;;;;;;;;;4996823;28;20210;-26
2022/12/05 05:36:57;;;;;;;10.57;6.20;;;;;;;;;;5002564;28;20200;-27
2022/12/05 05:39:25;;;;;;;12.70;7.17;;;;;;;;;;4980970;28;20208;-24
2022/12/05 05:41:52;;;;;;;13.90;7.63;;;;;;;;;;4990084;28;20220;-25
2022/12/05 05:44:19;;;;;;;10.20;5.70;;;;;;;;;;4994660;28;20670;-25
2022/12/05 05:46:47;;;;;;;12.97;7.27;;;;;;;;;;4990393;28;20204;-25
2022/12/05 05:49:15;;;;;;;10.53;6.43;;;;;;;;;;4993732;28;20224;-24
2022/12/05 05:51:42;;;;;;;14.30;6.63;;;;;;;;;;4984755;28;20224;-28
2022/12/05 05:54:09;;;;;;;8.47;6.03;;;;;;;;;;4991277;28;20235;-26
2022/12/05 05:56:36;;;;;;;10.80;6.70;;;;;;;;;;4984854;28;20284;-24
2022/12/05 05:59:04;;;;;;;10.27;6.53;;;;;;;;;;4989456;28;20196;-26
2022/12/05 06:01:31;;;;;;;10.43;6.50;;;;;;;;;;4987879;28;20720;-26
2022/12/05 06:03:59;;;;;;;9.00;5.67;;;;;;;;;;4986078;28;20211;-26
2022/12/05 06:09:31;;;;;;;8.87;6.53;;;;;;;;;;4977576;28;20223;-26
2022/12/05 06:11:58;;;;;;;9.67;6.13;;;;;;;;;;4989288;28;20578;-26
2022/12/05 06:14:25;;;;;;;10.70;5.73;;;;;;;;;;4993451;28;20247;-25
2022/12/05 06:16:52;;;;;;;10.33;6.50;;;;;;;;;;4982028;28;20511;-23
2022/12/05 06:19:22;;;;;;;11.37;6.90;;;;;;;;;;4992346;28;20227;-26
2022/12/05 06:21:50;;;;;;;13.53;7.50;;;;;;;;;;4994056;28;20235;-26
2022/12/05 06:24:17;;;;;;;11.27;6.20;;;;;;;;;;4986058;28;20216;-26
2022/12/05 06:26:46;;;;;;;10.97;6.57;;;;;;;;;;4992151;28;20427;-25
2022/12/05 06:29:15;;;;;;;13.53;6.37;;;;;;;;;;4988303;28;20224;-26
2022/12/05 06:31:43;;;;;;;10.50;7.00;;;;;;;;;;4992283;28;20231;-23
2022/12/05 06:34:10;;;;;;;12.67;6.73;;;;;;;;;;4990909;28;20218;-25
2022/12/05 06:36:39;;;;;;;12.03;6.80;;;;;;;;;;4998612;28;20281;-26
2022/12/05 06:39:06;;;;;;;11.57;6.70;;;;;;;;;;4999083;28;20206;-27
2022/12/05 06:41:33;;;;;;;16.57;8.17;;;;;;;;;;4985303;28;20224;-26
2022/12/05 06:44:02;;;;;;;13.27;7.63;;;;;;;;;;4989676;28;20206;-26
2022/12/05 06:46:29;;;;;;;12.43;6.93;;;;;;;;;;4989767;28;20206;-26
2022/12/05 06:48:58;;;;;;;13.87;7.47;;;;;;;;;;4990647;28;20261;-24
2022/12/05 06:51:25;;;;;;;12.80;7.47;;;;;;;;;;4993684;28;20231;-27
2022/12/05 06:53:52;;;;;;;12.63;6.13;;;;;;;;;;4991076;28;20204;-24
2022/12/05 06:56:20;;;;;;;13.80;7.07;;;;;;;;;;4991212;28;20316;-26
2022/12/05 06:58:49;;;;;;;12.53;8.20;;;;;;;;;;4987393;28;20307;-24
2022/12/05 07:04:03;;;;;;;11.33;6.67;;;;;;;;;;4992326;28;20277;-25
2022/12/05 07:06:30;;;;;;;13.17;6.50;;;;;;;;;;4996744;28;20196;-28
2022/12/05 07:08:57;;;;;;;10.90;6.33;;;;;;;;;;5013187;28;20223;-24
2022/12/05 07:11:25;;;;;;;11.83;6.33;;;;;;;;;;4986548;28;20224;-26
2022/12/05 07:13:52;;;;;;;13.63;7.60;;;;;;;;;;4990374;28;20600;-26
2022/12/05 07:16:20;;;;;;;15.27;8.43;;;;;;;;;;4983157;28;20208;-24
2022/12/05 07:18:48;;;;;;;14.27;7.57;;;;;;;;;;4989054;28;20231;-24
2022/12/05 07:21:16;;;;;;;15.27;8.03;;;;;;;;;;4999802;28;20545;-23
2022/12/05 07:23:45;;;;;;;17.13;9.23;;;;;;;;;;4990150;28;20224;-25
2022/12/05 07:26:15;;;;;;;13.30;8.10;;;;;;;;;;4992972;28;20211;-24
2022/12/05 07:28:42;;;;;;;12.87;7.77;;;;;;;;;;4996864;28;20192;-25
2022/12/05 07:31:11;;;;;;;15.23;7.37;;;;;;;;;;4987448;28;20291;-27
2022/12/05 07:33:39;;;;;;;16.07;7.63;;;;;;;;;;4994056;28;20208;-24
2022/12/05 07:36:09;;;;;;;13.87;8.27;;;;;;;;;;4996787;28;20206;-25
2022/12/05 07:38:36;;;;;;;10.83;7.27;;;;;;;;;;4988742;28;20306;-25
2022/12/05 07:41:05;;;;;;;15.33;7.83;;;;;;;;;;4990576;28;20246;-25
2022/12/05 07:43:33;;;;;;;16.17;7.20;;;;;;;;;;4997178;28;20208;-23
2022/12/05 07:46:02;;;;;;;13.43;7.47;;;;;;;;;;4984533;28;20301;-24
2022/12/05 07:48:29;;;;;;;13.27;7.50;;;;;;;;;;4993781;28;20211;-23
2022/12/05 07:51:01;;;;;;;12.03;6.70;;;;;;;;;;4994854;28;20232;-23
2022/12/05 07:53:28;;;;;;;10.83;7.27;;;;;;;;;;5008446;28;20203;-25
2022/12/05 07:55:55;;;;;;;14.03;7.47;;;;;;;;;;4993171;28;20211;-26
2022/12/05 07:58:22;;;;;;;11.27;6.77;;;;;;;;;;4993994;28;20502;-25
2022/12/05 08:00:49;;;;;;;12.20;7.33;;;;;;;;;;4987209;28;20213;-25
2022/12/05 08:03:17;;;;;;;12.30;7.10;;;;;;;;;;4991660;28;20214;-26
2022/12/05 08:05:44;;;;;;;11.93;7.20;;;;;;;;;;4995421;28;20208;-24
2022/12/05 08:08:12;;;;;;;12.47;6.83;;;;;;;;;;4988249;28;20213;-24
2022/12/05 08:10:39;;;;;;;11.00;6.63;;;;;;;;;;4983605;28;20246;-25
2022/12/05 08:13:07;;;;;;;11.33;6.53;;;;;;;;;;4995722;28;20502;-25
2022/12/05 08:15:36;;;;;;;11.43;6.20;;;;;;;;;;4989753;28;20655;-24
2022/12/05 08:18:03;;;;;;;12.67;6.90;;;;;;;;;;4992671;28;20208;-27
2022/12/05 08:20:30;;;;;;;14.30;8.17;;;;;;;;;;4995829;28;20226;-25
2022/12/05 08:22:57;;;;;;;13.33;7.33;;;;;;;;;;4997457;28;20215;-25
2022/12/05 08:25:26;;;;;;;11.80;6.60;;;;;;;;;;4987389;28;20578;-26
2022/12/05 08:27:53;;;;;;;10.53;6.77;;;;;;;;;;4996389;28;20258;-25
2022/12/05 08:30:20;;;;;;;12.43;6.50;;;;;;;;;;4983193;28;20770;-26
2022/12/05 08:32:47;;;;;;;13.20;7.30;;;;;;;;;;4990198;28;20208;-25
2022/12/05 08:35:15;;;;;;;9.90;6.00;;;;;;;;;;4995243;28;20250;-26
2022/12/05 08:37:42;;;;;;;12.40;6.87;;;;;;;;;;4996016;28;20215;-24
2022/12/05 08:40:10;;;;;;;15.30;7.60;;;;;;;;;;4990268;28;20565;-24
2022/12/05 08:42:38;;;;;;;10.07;6.70;;;;;;;;;;4987272;28;20324;-24
2022/12/05 08:45:06;;;;;;;13.47;7.13;;;;;;;;;;4991091;28;20219;-25
2022/12/05 08:47:33;;;;;;;12.60;6.83;;;;;;;;;;4988813;28;20279;-25
2022/12/05 08:50:00;;;;;;;12.30;7.10;;;;;;;;;;4995145;28;20227;-26
2022/12/05 08:52:27;;;;;;;12.50;9.57;;;;;;;;;;4996033;28;20294;-24
2022/12/05 08:54:54;;;;;;;20.67;18.53;;;;;;;;;;4988574;28;20204;-23
2022/12/05 08:57:21;;;;;;;16.83;14.87;;;;;;;;;;4995155;28;20204;-26
2022/12/05 08:59:50;;;;;;;15.93;13.70;;;;;;;;;;4990289;28;20271;-26
2022/12/05 09:02:17;;;;;;;18.40;15.27;;;;;;;;;;4983474;28;20264;-26
2022/12/05 09:04:45;;;;;;;11.53;6.90;;;;;;;;;;5000869;28;20206;-25
2022/12/05 09:07:12;;;;;;;9.87;6.33;;;;;;;;;;5006574;28;20214;-25
2022/12/05 09:09:42;;;;;;;11.60;8.00;;;;;;;;;;4992374;28;20236;-24
2022/12/05 09:12:09;;;;;;;10.87;7.20;;;;;;;;;;4992807;28;20236;-26
2022/12/05 09:14:36;;;;;;;12.30;7.23;;;;;;;;;;5006545;28;20217;-23
2022/12/05 09:17:05;;;;;;;11.90;7.30;;;;;;;;;;4988927;28;20226;-26
2022/12/05 09:19:33;;;;;;;13.73;9.60;;;;;;;;;;4994995;28;20200;-26
2022/12/05 09:22:00;;;;;;;16.90;12.97;;;;;;;;;;4995473;28;20235;-25
2022/12/05 09:24:27;;;;;;;11.57;8.37;;;;;;;;;;4988748;28;20307;-22
2022/12/05 09:26:54;;;;;;;11.80;8.20;;;;;;;;;;4990276;28;20207;-25
2022/12/05 09:29:24;;;;;;;15.33;11.33;;;;;;;;;;4994828;28;20204;-25
2022/12/05 09:31:52;;;;;;;10.47;8.10;;;;;;;;;;4992462;28;20253;-24
2022/12/05 09:34:23;;;;;;;12.20;7.40;;;;;;;;;;4996729;28;20452;-26
2022/12/05 09:36:51;;;;;;;11.73;8.23;;;;;;;;;;5007502;28;20215;-24
2022/12/05 09:39:19;;;;;;;12.70;8.67;;;;;;;;;;4992983;28;20215;-22
2022/12/05 09:42:07;;;;;;;14.00;8.53;;;;;;;;;;4994761;28;20236;-23
2022/12/05 09:44:41;;;;;;;12.53;9.07;;;;;;;;;;4987119;28;20239;-25
2022/12/05 09:47:12;;;;;;;13.37;8.40;;;;;;;;;;4985870;28;20200;-25
2022/12/05 09:49:44;;;;;;;12.13;7.97;;;;;;;;;;4995208;28;20298;-26
2022/12/05 09:52:22;;;;;;;12.60;8.47;;;;;;;;;;4995322;28;20228;-25
2022/12/05 09:54:50;;;;;;;11.20;8.53;;;;;;;;;;4989591;28;20210;-25
2022/12/05 09:57:19;;;;;;;12.67;6.97;;;;;;;;;;4975681;28;20213;-25
2022/12/05 09:59:46;;;;;;;13.47;7.10;;;;;;;;;;4975929;28;20292;-25
2022/12/05 10:05:54;;;;;;;11.20;7.43;;;;;;;;;;4995445;28;20187;-25
2022/12/05 10:08:25;;;;;;;10.67;6.10;;;;;;;;;;4995633;28;20246;-26
2022/12/05 10:10:57;;;;;;;10.77;6.63;;;;;;;;;;4994829;28;20232;-23
2022/12/05 10:13:35;;;;;;;9.17;6.13;;;;;;;;;;4995601;28;20200;-26
2022/12/05 10:16:06;;;;;;;10.53;6.60;;;;;;;;;;4990173;28;20203;-25
2022/12/05 10:18:37;;;;;;;14.17;6.37;;;;;;;;;;4987725;28;20215;-25
2022/12/05 10:23:39;;;;;;;11.17;6.80;;;;;;;;;;4972098;28;20227;-31
2022/12/05 10:26:07;;;;;;;11.00;6.67;;;;;;;;;;4979094;28;20208;-41
2022/12/05 10:28:38;;;;;;;14.03;7.17;;;;;;;;;;4986413;28;20239;-39
2022/12/05 10:31:08;;;;;;;11.60;6.90;;;;;;;;;;4969483;28;20236;-34
2022/12/05 10:33:38;;;;;;;11.53;6.17;;;;;;;;;;4973889;28;20211;-32
2022/12/05 10:36:10;;;;;;;10.30;5.93;;;;;;;;;;4989756;28;20200;-33
2022/12/05 10:38:39;;;;;;;10.27;5.83;;;;;;;;;;4976697;28;20437;-36
2022/12/05 10:41:08;;;;;;;9.93;6.30;;;;;;;;;;4971779;28;20232;-36
2022/12/05 10:43:37;;;;;;;9.37;6.17;;;;;;;;;;4965140;28;20208;-31
2022/12/05 10:46:05;;;;;;;9.80;6.13;;;;;;;;;;4963751;28;20204;-37
2022/12/05 10:48:35;;;;;;;10.37;6.53;;;;;;;;;;4976915;28;20204;-39
2022/12/05 10:51:02;;;;;;;9.13;5.90;;;;;;;;;;4992656;28;20227;-32
2022/12/05 10:53:32;;;;;;;8.23;5.43;;;;;;;;;;4984053;28;20219;-36
2022/12/05 10:56:01;;;;;;;8.47;5.80;;;;;;;;;;4977568;28;20205;-34
2022/12/05 10:58:29;;;;;;;8.90;6.07;;;;;;;;;;4973190;28;20208;-34
2022/12/05 11:00:57;;;;;;;8.10;5.73;;;;;;;;;;4963181;28;20225;-36
2022/12/05 11:03:26;;;;;;;8.27;5.77;;;;;;;;;;4975034;28;20204;-36
2022/12/05 11:05:54;;;;;;;8.43;5.50;;;;;;;;;;4972857;28;20215;-35
2022/12/05 11:08:22;;;;;;;11.00;5.80;;;;;;;;;;4972664;28;20216;-40
2022/12/05 11:10:50;;;;;;;8.83;5.33;;;;;;;;;;4971876;28;20232;-32
2022/12/05 11:13:25;;;;;;;9.37;6.30;;;;;;;;;;4980833;28;20212;-36
2022/12/05 11:15:52;;;;;;;7.67;5.90;;;;;;;;;;4963223;28;20205;-34
2022/12/05 11:18:20;;;;;;;10.40;6.00;;;;;;;;;;4969713;28;20209;-40
2022/12/05 11:20:47;;;;;;;7.87;5.57;;;;;;;;;;4973022;28;20225;-38
2022/12/05 11:23:17;;;;;;;8.83;5.93;;;;;;;;;;4973070;28;20220;-36
2022/12/05 11:25:45;;;;;;;7.70;5.50;;;;;;;;;;4967881;28;20196;-34
2022/12/05 11:28:25;;;;;;;8.83;6.27;;;;;;;;;;4978444;28;20216;-31
2022/12/05 11:30:57;;;;;;;8.03;5.33;;;;;;;;;;4969187;28;20235;-34
2022/12/05 11:33:26;;;;;;;9.97;5.77;;;;;;;;;;4969563;28;20204;-34
2022/12/05 11:35:54;;;;;;;7.83;6.13;;;;;;;;;;4972720;28;20212;-36
2022/12/05 11:38:23;;;;;;;7.53;5.70;;;;;;;;;;4973174;28;20216;-38
2022/12/05 11:40:53;;;;;;;7.80;4.70;;;;;;;;;;4962078;28;20229;-34
2022/12/05 11:43:30;;;;;;;7.97;5.60;;;;;;;;;;4974902;28;20231;-29
2022/12/05 11:46:05;;;;;;;7.03;5.27;;;;;;;;;;4976582;28;20212;-38
2022/12/05 11:48:37;;;;;;;6.87;5.13;;;;;;;;;;4985154;28;20199;-32
2022/12/05 11:51:10;;;;;;;7.53;5.00;;;;;;;;;;4993898;28;20235;-41
2022/12/05 11:53:45;;;;;;;7.23;5.27;;;;;;;;;;4994201;28;20196;-39
2022/12/05 11:56:17;;;;;;;5.53;4.50;;;;;;;;;;4973417;28;20212;-35
2022/12/05 11:59:00;;;;;;;6.73;4.83;;;;;;;;;;4977820;28;20204;-32
2022/12/05 12:01:34;;;;;;;9.37;5.53;;;;;;;;;;4960335;28;20315;-34
2022/12/05 12:04:08;;;;;;;7.70;5.60;;;;;;;;;;4969944;28;20195;-37
2022/12/05 12:06:47;;;;;;;8.70;5.53;;;;;;;;;;4960138;28;20208;-30
2022/12/05 12:09:26;;;;;;;32.27;15.77;;;;;;;;;;4965672;28;20263;-37
2022/12/05 12:11:57;;;;;;;7.70;5.67;;;;;;;;;;4971864;28;20267;-36
2022/12/05 12:14:31;;;;;;;10.27;6.57;;;;;;;;;;4975710;28;20205;-36
2022/12/05 12:17:02;;;;;;;9.10;6.00;;;;;;;;;;4974557;28;20211;-39
2022/12/05 12:19:39;;;;;;;7.77;5.40;;;;;;;;;;4980258;28;20200;-38
2022/12/05 12:22:13;;;;;;;8.93;5.07;;;;;;;;;;4978149;28;20246;-30
2022/12/05 12:24:51;;;;;;;7.50;5.10;;;;;;;;;;4973034;28;20198;-30
2022/12/05 12:27:26;;;;;;;7.03;5.07;;;;;;;;;;4966223;28;20205;-35
2022/12/05 12:30:00;;;;;;;6.77;4.57;;;;;;;;;;4969590;28;20215;-30
2022/12/05 12:32:32;;;;;;;6.77;5.30;;;;;;;;;;4972378;28;20209;-35
2022/12/05 12:35:14;;;;;;;8.17;5.13;;;;;;;;;;4982220;28;20265;-30
2022/12/05 12:37:44;;;;;;;7.90;5.40;;;;;;;;;;4971458;28;20208;-35
2022/12/05 12:40:14;;;;;;;6.60;4.83;;;;;;;;;;4962996;28;20224;-35
2022/12/05 12:42:45;;;;;;;9.80;5.27;;;;;;;;;;4983178;28;20287;-35
2022/12/05 12:45:36;;;;;;;8.17;5.13;;;;;;;;;;4987685;28;20247;-33
2022/12/05 12:48:13;;;;;;;8.90;5.47;;;;;;;;;;4981202;28;20287;-35
2022/12/05 12:50:42;;;;;;;7.97;4.93;;;;;;;;;;4973482;28;20240;-39
2022/12/05 12:53:28;;;;;;;7.93;4.80;;;;;;;;;;4974427;28;20455;-36
2022/12/05 12:56:02;;;;;;;7.77;5.50;;;;;;;;;;4994495;28;20196;-40
2022/12/05 12:58:39;;;;;;;9.27;5.30;;;;;;;;;;4995001;28;20200;-36
2022/12/05 13:01:10;;;;;;;7.00;4.90;;;;;;;;;;4967621;28;20236;-35
2022/12/05 13:03:40;;;;;;;5.50;4.87;;;;;;;;;;4987918;28;20315;-40
2022/12/05 13:06:09;;;;;;;8.80;5.53;;;;;;;;;;4977496;28;20212;-32
2022/12/05 13:08:38;;;;;;;7.10;4.40;;;;;;;;;;4968472;28;20201;-34
2022/12/05 13:11:08;;;;;;;6.60;4.50;;;;;;;;;;4968024;28;20240;-35
2022/12/05 13:13:37;;;;;;;5.43;4.17;;;;;;;;;;4976209;28;20233;-34
2022/12/05 13:16:06;;;;;;;6.77;4.73;;;;;;;;;;4969000;28;20209;-34
2022/12/05 13:18:35;;;;;;;5.33;4.20;;;;;;;;;;4985811;28;20220;-34
2022/12/05 13:21:06;;;;;;;8.57;4.50;;;;;;;;;;4991417;28;20220;-31
2022/12/05 13:23:34;;;;;;;4.47;3.73;;;;;;;;;;4990083;28;20196;-34
2022/12/05 13:26:02;;;;;;;4.00;3.40;;;;;;;;;;4977217;28;20235;-36
2022/12/05 13:28:30;;;;;;;4.33;3.30;;;;;;;;;;4983185;28;20201;-41
2022/12/05 13:31:00;;;;;;;4.87;3.57;;;;;;;;;;4964990;28;20268;-40
2022/12/05 13:33:28;;;;;;;5.50;3.80;;;;;;;;;;4971809;28;20236;-33
2022/12/05 13:44:29;;;;;;;4.37;3.13;;;;;;;;;;4973955;28;20572;-33
2022/12/05 13:46:56;;;;;;;5.23;3.60;;;;;;;;;;4966867;28;20211;-39
2022/12/05 13:49:28;;;;;;;4.43;3.60;;;;;;;;;;4984913;28;20212;-39
2022/12/05 13:52:05;;;;;;;4.53;3.63;;;;;;;;;;4994291;28;20242;-34
2022/12/05 13:54:33;;;;;;;5.63;3.27;;;;;;;;;;4966457;28;20203;-36
2022/12/05 13:57:01;;;;;;;3.90;3.50;;;;;;;;;;4985593;28;20204;-35
2022/12/05 13:59:55;;;;;;;4.03;3.03;;;;;;;;;;4980939;28;20219;-32
2022/12/05 14:02:52;;;;;;;4.90;2.97;;;;;;;;;;4937734;28;20239;-34
2022/12/05 14:05:42;;;;;;;5.10;3.17;;;;;;;;;;4915290;29;20202;-37
2022/12/05 14:08:28;;;;;;;4.80;3.30;;;;;;;;;;4970033;28;20219;-32
2022/12/05 14:11:10;;;;;;;3.07;2.77;;;;;;;;;;4958987;28;20243;-28
2022/12/05 14:13:42;;;;;;;3.50;3.00;;;;;;;;;;4963877;28;20201;-37
2022/12/05 14:16:28;;;;;;;32.67;24.23;;;;;;;;;;4962083;28;20209;-35
2022/12/05 14:18:58;;;;;;;9.43;5.40;;;;;;;;;;4973915;28;20214;-38
2022/12/05 14:21:37;;;;;;;4.47;4.00;;;;;;;;;;4974223;28;20296;-31
2022/12/05 14:24:07;;;;;;;3.97;3.57;;;;;;;;;;4969539;28;20564;-34
2022/12/05 14:26:58;;;;;;;5.57;3.97;;;;;;;;;;4967851;28;20211;-39
2022/12/05 14:33:05;;;;;;;4.17;3.17;;;;;;;;;;4970206;28;20286;-36
2022/12/05 14:35:41;;;;;;;8.97;5.00;;;;;;;;;;4955505;29;20200;-36
2022/12/05 14:38:19;;;;;;;4.00;3.47;;;;;;;;;;4977938;28;20244;-35
2022/12/05 14:40:47;;;;;;;5.27;3.57;;;;;;;;;;4977410;28;20219;-32
2022/12/05 14:43:19;;;;;;;4.20;3.10;;;;;;;;;;4993527;28;20208;-36
2022/12/05 14:45:55;;;;;;;4.27;3.30;;;;;;;;;;4961960;28;20205;-42
2022/12/05 14:48:28;;;;;;;4.10;3.40;;;;;;;;;;4980697;28;20208;-36
2022/12/05 14:50:56;;;;;;;4.13;3.50;;;;;;;;;;4974344;28;20282;-42
2022/12/05 14:53:26;;;;;;;3.83;2.80;;;;;;;;;;4965727;28;20216;-39
2022/12/05 14:55:54;;;;;;;4.77;3.10;;;;;;;;;;4978203;28;20235;-38
2022/12/05 14:58:30;;;;;;;3.07;2.40;;;;;;;;;;4972877;28;20216;-39
2022/12/05 15:00:59;;;;;;;3.20;2.10;;;;;;;;;;4965978;28;20228;-35
2022/12/05 15:03:31;;;;;;;2.53;2.33;;;;;;;;;;4969785;28;20204;-37
2022/12/05 15:06:00;;;;;;;3.13;2.50;;;;;;;;;;4976770;28;20216;-37
2022/12/05 15:08:28;;;;;;;3.83;1.90;;;;;;;;;;4967720;28;20296;-36
2022/12/05 15:10:55;;;;;;;2.70;2.30;;;;;;;;;;4964731;28;20220;-39
2022/12/05 15:13:27;;;;;;;2.47;2.27;;;;;;;;;;4978368;28;20212;-33
2022/12/05 15:15:58;;;;;;;2.30;2.10;;;;;;;;;;4967362;28;20208;-37
2022/12/05 15:18:28;;;;;;;2.83;1.90;;;;;;;;;;4970925;28;20201;-40
2022/12/05 15:20:58;;;;;;;2.20;2.00;;;;;;;;;;4969008;28;20235;-33